Time;durP1;ratioP1;P1;durP2;ratioP2;P2;SDS_P1;SDS_P2;PMS_P1;PMS_P2;Temp;Humidity;BMP_temperature;BMP_pressure;BME280_temperature;BME280_humidity;BME280_pressure;Samples;Min_cycle;Max_cycle;Signal;HPM_P1;HPM_P2
2022/10/04 00:02:01;;;;;;;14.70;8.57;;;12.10;99.90;;;;;;4972589;28;20065;-75
2022/10/04 00:04:56;;;;;;;17.50;8.20;;;12.10;99.90;;;;;;4961210;28;20101;-75
2022/10/04 00:07:38;;;;;;;13.02;7.43;;;12.10;99.90;;;;;;4972626;28;20085;-75
2022/10/04 00:10:14;;;;;;;13.02;7.70;;;12.10;99.90;;;;;;4978200;28;20104;-75
2022/10/04 00:12:50;;;;;;;13.48;7.88;;;12.10;99.90;;;;;;4982001;28;20049;-75
2022/10/04 00:15:21;;;;;;;17.65;9.45;;;12.10;99.90;;;;;;4985500;28;20483;-75
2022/10/04 00:18:11;;;;;;;19.38;10.57;;;12.10;99.90;;;;;;4991265;28;20043;-75
2022/10/04 00:20:46;;;;;;;22.60;11.25;;;12.10;99.90;;;;;;4960319;28;20548;-76
2022/10/04 00:23:27;;;;;;;17.23;9.38;;;12.10;99.90;;;;;;4971559;28;20042;-75
2022/10/04 00:26:02;;;;;;;14.95;8.52;;;12.10;99.90;;;;;;4968890;28;20122;-75
2022/10/04 00:28:35;;;;;;;17.52;9.80;;;12.10;99.90;;;;;;4974828;28;20043;-75
2022/10/04 00:31:12;;;;;;;15.88;8.10;;;12.00;99.90;;;;;;4977094;28;20494;-76
2022/10/04 00:33:41;;;;;;;15.10;7.78;;;12.10;99.90;;;;;;4976533;28;20044;-75
2022/10/04 00:36:27;;;;;;;15.38;9.15;;;12.10;99.90;;;;;;4977673;28;20051;-75
2022/10/04 00:39:03;;;;;;;19.17;10.40;;;11.80;99.90;;;;;;4962341;28;20078;-75
2022/10/04 00:41:43;;;;;;;17.05;9.15;;;12.10;99.90;;;;;;4977366;28;20050;-75
2022/10/04 00:44:19;;;;;;;14.30;8.60;;;12.00;99.90;;;;;;4965742;28;20486;-75
2022/10/04 00:46:47;;;;;;;11.05;5.97;;;12.00;99.90;;;;;;4990596;28;20049;-76
2022/10/04 00:49:15;;;;;;;14.93;8.20;;;12.00;99.90;;;;;;4977180;28;20513;-75
2022/10/04 00:51:59;;;;;;;17.38;9.30;;;11.70;99.90;;;;;;4959716;28;20054;-75
2022/10/04 00:54:40;;;;;;;14.25;8.25;;;12.00;99.90;;;;;;4965575;28;20051;-75
2022/10/04 00:57:11;;;;;;;11.23;6.25;;;12.00;99.90;;;;;;4975811;28;20440;-76
2022/10/04 00:59:56;;;;;;;12.45;6.50;;;12.00;99.90;;;;;;4977485;28;20490;-75
2022/10/04 01:02:37;;;;;;;11.80;5.95;;;12.00;99.90;;;;;;4976499;28;20035;-75
2022/10/04 01:05:20;;;;;;;11.30;5.65;;;12.00;99.90;;;;;;4976626;28;20038;-76
2022/10/04 01:08:12;;;;;;;12.93;5.90;;;12.00;99.90;;;;;;4957885;28;20074;-75
2022/10/04 01:10:46;;;;;;;12.20;5.57;;;12.00;99.90;;;;;;4972428;28;20487;-75
2022/10/04 01:13:19;;;;;;;11.50;5.55;;;12.00;99.90;;;;;;4975385;28;20574;-75
2022/10/04 01:15:56;;;;;;;9.68;5.15;;;12.00;99.90;;;;;;4976353;28;20085;-75
2022/10/04 01:18:25;;;;;;;12.27;5.97;;;12.00;99.90;;;;;;4975968;28;20402;-75
2022/10/04 01:21:20;;;;;;;11.52;6.50;;;12.00;99.90;;;;;;4975171;28;20066;-75
2022/10/04 01:23:46;;;;;;;13.52;8.88;;;12.00;99.90;;;;;;4975459;28;20061;-75
2022/10/04 01:26:28;;;;;;;13.63;7.65;;;11.90;99.90;;;;;;4967891;28;20050;-75
2022/10/04 01:29:05;;;;;;;16.73;9.48;;;11.90;99.90;;;;;;4976546;28;20093;-75
2022/10/04 01:31:33;;;;;;;17.85;11.60;;;11.90;99.90;;;;;;4975806;28;20074;-75
2022/10/04 01:34:01;;;;;;;19.05;10.07;;;11.80;99.90;;;;;;4976195;28;20054;-75
2022/10/04 01:36:27;;;;;;;17.48;11.00;;;11.80;99.90;;;;;;4979464;28;20045;-76
2022/10/04 01:38:54;;;;;;;14.10;8.07;;;11.80;99.90;;;;;;4978020;28;20049;-75
2022/10/04 01:41:42;;;;;;;11.43;6.90;;;11.80;99.90;;;;;;4978268;28;20043;-75
2022/10/04 01:44:12;;;;;;;14.43;9.85;;;11.80;99.90;;;;;;4955524;28;20041;-75
2022/10/04 01:46:39;;;;;;;14.30;7.90;;;11.70;99.90;;;;;;4967052;28;20077;-75
2022/10/04 01:49:17;;;;;;;12.07;7.60;;;11.70;99.90;;;;;;4976319;28;20495;-75
2022/10/04 01:51:55;;;;;;;14.85;9.27;;;11.70;99.90;;;;;;4958752;28;20055;-75
2022/10/04 01:54:42;;;;;;;22.92;13.75;;;11.70;99.90;;;;;;4974359;28;20482;-75
2022/10/04 01:57:32;;;;;;;20.50;11.45;;;11.70;99.90;;;;;;4967204;28;20041;-75
2022/10/04 02:00:03;;;;;;;15.10;9.32;;;11.70;99.90;;;;;;4971394;28;20572;-75
2022/10/04 02:02:38;;;;;;;22.65;15.13;;;11.70;99.90;;;;;;4961685;28;20418;-75
2022/10/04 02:05:11;;;;;;;26.23;14.15;;;11.70;99.90;;;;;;4967478;28;20321;-76
2022/10/04 02:07:40;;;;;;;23.02;14.10;;;11.70;99.90;;;;;;4975909;28;20051;-75
2022/10/04 02:10:17;;;;;;;24.45;13.40;;;11.70;99.90;;;;;;4969326;28;20049;-75
2022/10/04 02:12:46;;;;;;;16.30;10.50;;;11.60;99.90;;;;;;4980137;28;20043;-75
2022/10/04 02:15:13;;;;;;;19.60;12.35;;;11.60;99.90;;;;;;4973126;28;20082;-76
2022/10/04 02:17:43;;;;;;;19.33;10.88;;;11.60;99.90;;;;;;4963632;28;20043;-75
2022/10/04 02:20:16;;;;;;;18.90;11.90;;;11.60;99.90;;;;;;4943560;28;20553;-76
2022/10/04 02:22:45;;;;;;;14.88;8.77;;;11.70;99.90;;;;;;4986857;28;20049;-75
2022/10/04 02:25:13;;;;;;;17.33;11.07;;;11.70;99.90;;;;;;4975786;28;20110;-76
2022/10/04 02:27:41;;;;;;;16.60;9.95;;;11.70;99.90;;;;;;4975010;28;20113;-75
2022/10/04 02:30:09;;;;;;;20.85;13.07;;;11.70;99.90;;;;;;4974832;28;20061;-75
2022/10/04 02:35:34;;;;;;;19.70;12.13;;;11.70;99.90;;;;;;4977233;28;20050;-76
2022/10/04 02:38:16;;;;;;;22.65;14.95;;;11.70;99.90;;;;;;4973782;28;20050;-75
2022/10/04 02:41:22;;;;;;;17.02;11.18;;;11.70;99.90;;;;;;4975089;28;20047;-75
2022/10/04 02:43:57;;;;;;;20.35;14.93;;;11.70;99.90;;;;;;4973683;28;20506;-75
2022/10/04 02:47:03;;;;;;;22.67;12.70;;;11.70;99.90;;;;;;4974708;28;20093;-76
2022/10/04 02:49:52;;;;;;;17.42;10.40;;;11.70;99.90;;;;;;4934394;29;20086;-75
2022/10/04 02:52:45;;;;;;;18.20;10.48;;;11.60;99.90;;;;;;4970488;28;20055;-75
2022/10/04 02:55:19;;;;;;;;;;;11.60;99.90;;;;;;4975357;28;20495;-75
2022/10/04 02:57:45;;;;;;;15.25;9.20;;;11.60;99.90;;;;;;4979424;28;20004;-75
2022/10/04 03:00:28;;;;;;;12.25;8.70;;;11.50;99.90;;;;;;4993039;28;20056;-75
2022/10/04 03:03:16;;;;;;;16.45;9.30;;;11.50;99.90;;;;;;4987422;28;20042;-75
2022/10/04 03:05:56;;;;;;;17.65;11.55;;;11.50;99.90;;;;;;4960894;28;20046;-75
2022/10/04 03:08:23;;;;;;;21.90;12.80;;;11.40;99.90;;;;;;4973365;28;20053;-75
2022/10/04 03:10:50;;;;;;;21.05;11.60;;;11.40;99.90;;;;;;4974509;28;20537;-75
2022/10/04 03:13:19;;;;;;;17.25;10.35;;;11.30;99.90;;;;;;4937863;29;20043;-75
2022/10/04 03:15:48;;;;;;;14.93;9.63;;;11.30;99.90;;;;;;4980259;28;20053;-75
2022/10/04 03:18:15;;;;;;;11.55;8.35;;;11.30;99.90;;;;;;4973803;28;20141;-75
2022/10/04 03:20:42;;;;;;;21.45;12.73;;;11.30;99.90;;;;;;4974378;28;20042;-75
2022/10/04 03:23:10;;;;;;;18.70;12.73;;;11.30;99.90;;;;;;4973654;28;20050;-75
2022/10/04 03:26:06;;;;;;;15.98;9.63;;;11.30;99.90;;;;;;4974494;28;20114;-75
2022/10/04 03:28:33;;;;;;;19.48;12.35;;;11.30;99.90;;;;;;4954204;28;20059;-75
2022/10/04 03:30:59;;;;;;;16.63;10.88;;;11.20;99.90;;;;;;4961124;28;20096;-75
2022/10/04 03:33:27;;;;;;;19.83;13.10;;;11.30;99.90;;;;;;4976039;28;20047;-75
2022/10/04 03:35:56;;;;;;;21.40;12.38;;;11.20;99.90;;;;;;4984858;28;20050;-75
2022/10/04 03:38:25;;;;;;;12.80;7.90;;;11.20;99.90;;;;;;4972975;28;20047;-76
2022/10/04 03:41:00;;;;;;;15.82;10.52;;;11.20;99.90;;;;;;4962062;28;20108;-75
2022/10/04 03:43:32;;;;;;;20.08;12.60;;;10.80;99.90;;;;;;4953885;28;20035;-75
2022/10/04 03:46:00;;;;;;;18.63;11.65;;;11.20;99.90;;;;;;4972227;28;20149;-75
2022/10/04 03:48:56;;;;;;;17.60;11.73;;;11.20;99.90;;;;;;4976196;28;20042;-75
2022/10/04 03:51:25;;;;;;;21.02;13.45;;;11.20;99.90;;;;;;4954215;28;20130;-75
2022/10/04 03:53:53;;;;;;;19.70;12.48;;;11.20;99.90;;;;;;4971313;28;20043;-75
2022/10/04 03:56:24;;;;;;;16.67;10.15;;;11.20;99.90;;;;;;4983433;28;20137;-75
2022/10/04 03:58:51;;;;;;;17.05;10.82;;;11.20;99.90;;;;;;4987877;28;20185;-75
2022/10/04 04:01:38;;;;;;;23.42;14.18;;;11.20;99.90;;;;;;4960303;28;20039;-75
2022/10/04 04:04:21;;;;;;;19.70;13.98;;;11.20;99.90;;;;;;4974126;28;20035;-75
2022/10/04 04:07:40;;;;;;;27.10;17.45;;;11.20;99.90;;;;;;4964003;28;20035;-75
2022/10/04 04:10:13;;;;;;;22.17;15.55;;;11.10;99.90;;;;;;4947396;28;20427;-75
2022/10/04 04:12:46;;;;;;;29.38;18.83;;;11.20;99.90;;;;;;4972654;28;20069;-76
2022/10/04 04:15:14;;;;;;;26.02;18.00;;;11.20;99.90;;;;;;4964859;28;20430;-75
2022/10/04 04:17:46;;;;;;;23.40;16.63;;;11.20;99.90;;;;;;4966571;28;20502;-75
2022/10/04 04:20:23;;;;;;;30.65;19.52;;;11.20;99.90;;;;;;4965381;28;20043;-75
2022/10/04 04:23:04;;;;;;;27.55;19.05;;;11.20;99.90;;;;;;4970932;28;20502;-75
2022/10/04 04:25:33;;;;;;;18.92;13.70;;;11.10;99.90;;;;;;4984111;28;20497;-75
2022/10/04 04:28:13;;;;;;;23.80;16.02;;;11.10;99.90;;;;;;4973552;28;20047;-75
2022/10/04 04:30:45;;;;;;;22.60;16.25;;;11.10;99.90;;;;;;4982663;28;20051;-75
2022/10/04 04:33:16;;;;;;;;;;;11.10;99.90;;;;;;4991302;28;20556;-75
2022/10/04 04:35:42;;;;;;;29.13;20.60;;;11.10;99.90;;;;;;4974070;28;20381;-75
2022/10/04 04:38:22;;;;;;;16.98;11.82;;;11.10;99.90;;;;;;4971612;28;20047;-75
2022/10/04 04:40:49;;;;;;;17.45;12.68;;;11.00;99.90;;;;;;4969156;28;20039;-75
2022/10/04 04:43:19;;;;;;;26.05;18.90;;;11.00;99.90;;;;;;4968973;28;20042;-75
2022/10/04 04:45:48;;;;;;;16.77;11.77;;;11.00;99.90;;;;;;4972386;28;20062;-75
2022/10/04 04:48:16;;;;;;;30.25;20.05;;;11.00;99.90;;;;;;4973523;28;20043;-75
2022/10/04 04:50:47;;;;;;;27.23;19.70;;;11.00;99.90;;;;;;4978750;28;20393;-75
2022/10/04 04:53:21;;;;;;;20.85;15.07;;;11.00;99.90;;;;;;4969099;28;20051;-75
2022/10/04 04:55:54;;;;;;;27.48;18.00;;;11.00;99.90;;;;;;4956526;29;20129;-75
2022/10/04 04:58:26;;;;;;;26.58;18.50;;;11.00;99.90;;;;;;4965836;28;20495;-75
2022/10/04 05:00:57;;;;;;;;;;;11.00;99.90;;;;;;4976931;28;20055;-75
2022/10/04 05:03:24;;;;;;;24.13;16.90;;;10.90;99.90;;;;;;4966727;28;19929;-75
2022/10/04 05:05:56;;;;;;;23.77;16.20;;;10.90;99.90;;;;;;4987164;28;20039;-75
2022/10/04 05:08:26;;;;;;;27.23;18.25;;;11.00;99.90;;;;;;4988576;28;20113;-75
2022/10/04 05:11:15;;;;;;;21.30;16.40;;;10.90;99.90;;;;;;4992639;28;20031;-75
2022/10/04 05:13:58;;;;;;;35.67;22.58;;;10.90;99.90;;;;;;4996272;28;20509;-75
2022/10/04 05:16:53;;;;;;;31.80;21.70;;;10.80;99.90;;;;;;4991814;28;20525;-75
2022/10/04 05:19:27;;;;;;;31.50;20.30;;;10.80;99.90;;;;;;4975291;28;20051;-75
2022/10/04 05:21:55;;;;;;;29.13;20.55;;;10.70;99.90;;;;;;4975283;28;20046;-75
2022/10/04 05:24:33;;;;;;;32.15;22.48;;;10.70;99.90;;;;;;4971002;28;20117;-75
2022/10/04 05:27:07;;;;;;;30.83;21.92;;;10.60;99.90;;;;;;4946762;28;20039;-75
2022/10/04 05:29:40;;;;;;;24.40;16.83;;;10.60;99.90;;;;;;4976320;28;20066;-75
2022/10/04 05:32:32;;;;;;;27.48;19.50;;;10.60;99.90;;;;;;4975053;28;20054;-75
2022/10/04 05:34:59;;;;;;;24.53;18.23;;;10.60;99.90;;;;;;4947391;28;20503;-75
2022/10/04 05:37:37;;;;;;;31.52;21.73;;;10.50;99.90;;;;;;4972384;28;20050;-75
2022/10/04 05:40:30;;;;;;;21.33;16.63;;;10.50;99.90;;;;;;4962926;28;20042;-75
2022/10/04 05:42:58;;;;;;;26.33;17.88;;;10.50;99.90;;;;;;4934219;28;20503;-75
2022/10/04 05:45:23;;;;;;;28.67;20.10;;;10.50;99.90;;;;;;4958022;28;20133;-74
2022/10/04 05:48:02;;;;;;;31.00;20.90;;;10.50;99.90;;;;;;4953970;28;20102;-74
2022/10/04 05:50:39;;;;;;;29.08;22.40;;;10.50;99.90;;;;;;4975756;28;20042;-74
2022/10/04 05:53:31;;;;;;;31.70;23.23;;;10.50;99.90;;;;;;4968903;28;20050;-74
2022/10/04 05:56:21;;;;;;;32.40;22.63;;;10.40;99.90;;;;;;4964985;28;20052;-73
2022/10/04 05:59:06;;;;;;;22.23;17.08;;;10.50;99.90;;;;;;4955077;29;20468;-74
2022/10/04 06:02:13;;;;;;;25.77;19.55;;;10.40;99.90;;;;;;4964962;28;20065;-74
2022/10/04 06:05:08;;;;;;;30.00;23.55;;;10.40;99.90;;;;;;4954297;28;20059;-74
2022/10/04 06:07:45;;;;;;;31.30;23.55;;;10.40;99.90;;;;;;4958295;28;20047;-74
2022/10/04 06:10:32;;;;;;;29.52;22.13;;;10.40;99.90;;;;;;4975909;28;20470;-75
2022/10/04 06:13:19;;;;;;;23.77;17.05;;;10.40;99.90;;;;;;4971149;28;20493;-74
2022/10/04 06:16:12;;;;;;;30.08;21.20;;;9.90;99.90;;;;;;4968114;28;20043;-75
2022/10/04 06:18:52;;;;;;;22.02;17.75;;;10.40;99.90;;;;;;4968411;28;20490;-75
2022/10/04 06:21:24;;;;;;;26.20;18.73;;;10.30;99.90;;;;;;4968679;28;20050;-74
2022/10/04 06:24:03;;;;;;;24.25;18.35;;;10.40;99.90;;;;;;4969254;28;20041;-74
2022/10/04 06:26:51;;;;;;;27.85;19.98;;;10.40;99.90;;;;;;4960267;28;20118;-74
2022/10/04 06:29:22;;;;;;;28.83;22.42;;;10.40;99.90;;;;;;4958279;28;20105;-74
2022/10/04 06:32:13;;;;;;;22.92;19.00;;;10.40;99.90;;;;;;4965584;28;20541;-74
2022/10/04 06:35:02;;;;;;;30.33;23.60;;;10.50;99.90;;;;;;4977577;28;20078;-76
2022/10/04 06:38:13;;;;;;;33.47;23.60;;;10.50;99.90;;;;;;4955216;28;20047;-75
2022/10/04 06:40:56;;;;;;;27.15;18.83;;;10.50;99.90;;;;;;4929632;28;20495;-74
2022/10/04 06:43:50;;;;;;;32.38;22.95;;;10.60;99.90;;;;;;4967912;28;20490;-74
2022/10/04 06:46:46;;;;;;;34.17;25.02;;;10.60;99.90;;;;;;4973490;28;20034;-75
2022/10/04 06:49:47;;;;;;;33.95;25.90;;;10.60;99.90;;;;;;4959366;28;20039;-75
2022/10/04 06:52:35;;;;;;;37.67;25.70;;;10.70;99.90;;;;;;4960507;28;20478;-74
2022/10/04 06:55:19;;;;;;;34.08;26.00;;;10.70;99.90;;;;;;4988896;28;20097;-74
2022/10/04 06:58:17;;;;;;;32.33;24.67;;;10.70;99.90;;;;;;4974064;28;20035;-74
2022/10/04 07:01:27;;;;;;;31.02;24.73;;;10.80;99.90;;;;;;4956407;28;20047;-74
2022/10/04 07:04:14;;;;;;;33.30;24.10;;;10.80;99.90;;;;;;4956390;28;20522;-75
2022/10/04 07:07:25;;;;;;;33.15;24.33;;;10.80;99.90;;;;;;4961521;28;20035;-74
2022/10/04 07:09:58;;;;;;;33.13;23.63;;;10.80;99.90;;;;;;4944514;28;20059;-74
2022/10/04 07:12:26;;;;;;;31.10;24.10;;;10.90;99.90;;;;;;4963101;28;20074;-75
2022/10/04 07:14:56;;;;;;;33.92;25.63;;;11.00;99.90;;;;;;4955572;28;20043;-75
2022/10/04 07:17:29;;;;;;;32.63;23.85;;;11.00;99.90;;;;;;4972643;28;20046;-75
2022/10/04 07:20:04;;;;;;;31.00;23.65;;;11.20;99.90;;;;;;4967977;28;20503;-75
2022/10/04 07:22:43;;;;;;;34.28;23.85;;;11.30;99.90;;;;;;4966095;28;20542;-74
2022/10/04 07:25:21;;;;;;;29.77;22.98;;;11.30;99.90;;;;;;4974665;28;20049;-74
2022/10/04 07:30:55;;;;;;;33.13;24.95;;;11.60;99.90;;;;;;4955464;28;20059;-75
2022/10/04 07:33:26;;;;;;;32.35;22.35;;;11.70;99.90;;;;;;4972759;28;20053;-75
2022/10/04 07:36:02;;;;;;;27.90;21.48;;;11.80;99.90;;;;;;4973107;28;20510;-75
2022/10/04 07:38:33;;;;;;;27.30;22.75;;;11.90;99.90;;;;;;4953658;28;20055;-75
2022/10/04 07:41:17;;;;;;;31.08;22.98;;;11.90;99.90;;;;;;4965099;28;20057;-75
2022/10/04 07:44:00;;;;;;;28.75;20.30;;;12.00;99.90;;;;;;4977999;28;20424;-76
2022/10/04 07:46:41;;;;;;;26.70;20.08;;;12.10;99.90;;;;;;4963058;28;20050;-75
2022/10/04 07:49:17;;;;;;;28.15;19.80;;;12.30;99.90;;;;;;4967668;28;20046;-75
2022/10/04 07:52:03;;;;;;;24.83;18.85;;;12.30;99.90;;;;;;4992529;28;20050;-76
2022/10/04 07:54:50;;;;;;;29.15;18.33;;;12.50;99.90;;;;;;4972860;28;20042;-76
2022/10/04 07:57:58;;;;;;;25.42;17.23;;;12.60;99.90;;;;;;4973190;28;20092;-76
2022/10/04 08:00:36;;;;;;;20.13;15.48;;;12.80;99.90;;;;;;4905364;29;20044;-76
2022/10/04 08:03:08;;;;;;;23.92;15.57;;;12.80;99.90;;;;;;4898682;29;20567;-76
2022/10/04 08:05:49;;;;;;;;;;;12.90;99.90;;;;;;4941521;28;20051;-76
2022/10/04 08:08:36;;;;;;;21.02;14.27;;;12.90;99.90;;;;;;4972951;28;20378;-75
2022/10/04 08:11:26;;;;;;;19.80;13.57;;;12.90;99.90;;;;;;4973726;28;20043;-75
2022/10/04 08:14:00;;;;;;;21.13;13.10;;;13.00;99.90;;;;;;4973920;28;20047;-75
2022/10/04 08:16:37;;;;;;;18.98;13.00;;;13.10;99.90;;;;;;4976957;28;20038;-76
2022/10/04 08:19:25;;;;;;;20.73;14.23;;;13.20;99.90;;;;;;4991422;28;20117;-76
2022/10/04 08:22:32;;;;;;;17.92;12.20;;;13.30;99.90;;;;;;4965736;28;20555;-75
2022/10/04 08:25:17;;;;;;;20.77;12.02;;;13.50;99.90;;;;;;4945511;28;20419;-76
2022/10/04 08:31:21;;;;;;;17.67;10.38;;;14.10;99.90;;;;;;4967915;28;20134;-77
2022/10/04 08:34:02;;;;;;;17.33;10.68;;;14.00;99.90;;;;;;4972145;28;20055;-77
2022/10/04 08:36:58;;;;;;;15.95;10.23;;;14.10;99.90;;;;;;4976649;28;20126;-78
2022/10/04 08:39:54;;;;;;;16.58;9.35;;;14.30;99.90;;;;;;4969272;28;20122;-77
2022/10/04 08:42:52;;;;;;;16.13;8.35;;;14.40;99.90;;;;;;4971940;28;20042;-77
2022/10/04 08:45:33;;;;;;;16.77;9.48;;;14.40;99.90;;;;;;4940763;28;20482;-78
2022/10/04 08:48:38;;;;;;;16.15;8.90;;;14.30;99.90;;;;;;4972991;28;20104;-77
2022/10/04 08:51:45;;;;;;;14.77;8.05;;;14.40;99.90;;;;;;4969313;28;20094;-77
2022/10/04 08:54:39;;;;;;;13.63;8.07;;;14.40;99.90;;;;;;4970335;28;20118;-77
2022/10/04 08:57:33;;;;;;;14.15;8.43;;;14.50;99.90;;;;;;4968147;28;20487;-77
2022/10/04 09:00:19;;;;;;;12.73;7.60;;;14.80;99.90;;;;;;4963746;28;20053;-78
2022/10/04 09:03:25;;;;;;;13.85;7.20;;;14.60;99.90;;;;;;4969304;28;20031;-77
2022/10/04 09:06:02;;;;;;;14.85;7.40;;;15.20;99.90;;;;;;4963993;28;20407;-77
2022/10/04 09:09:03;;;;;;;15.38;7.60;;;15.30;99.90;;;;;;4988611;28;20050;-77
2022/10/04 09:11:41;;;;;;;14.88;7.53;;;15.50;99.90;;;;;;4983580;28;20471;-78
2022/10/04 09:14:29;;;;;;;13.63;7.15;;;15.60;99.90;;;;;;4952934;28;20030;-78
2022/10/04 09:17:19;;;;;;;11.45;7.45;;;15.80;99.90;;;;;;4970641;28;20055;-78
2022/10/04 09:20:21;;;;;;;14.15;7.38;;;16.00;99.90;;;;;;4982469;28;20043;-76
2022/10/04 09:22:57;;;;;;;13.05;7.57;;;16.00;99.90;;;;;;4973935;28;20563;-77
2022/10/04 09:25:51;;;;;;;14.48;8.13;;;16.10;99.90;;;;;;4969388;28;20509;-77
2022/10/04 09:28:37;;;;;;;12.07;6.95;;;16.30;99.90;;;;;;4961991;28;20174;-77
2022/10/04 09:31:05;;;;;;;14.48;7.22;;;16.60;99.90;;;;;;4981329;28;20046;-77
2022/10/04 09:33:50;;;;;;;11.15;6.90;;;16.70;99.90;;;;;;4980133;28;20039;-77
2022/10/04 09:36:36;;;;;;;13.30;7.60;;;16.80;99.90;;;;;;4980999;28;20086;-77
2022/10/04 09:39:30;;;;;;;14.20;7.45;;;16.90;99.90;;;;;;4964866;28;20051;-77
2022/10/04 09:42:32;;;;;;;13.15;6.60;;;17.00;99.90;;;;;;4985068;28;20034;-77
2022/10/04 09:45:01;;;;;;;;;;;17.10;99.90;;;;;;4974762;28;20193;-77
2022/10/04 09:47:30;;;;;;;12.45;6.70;;;17.20;99.90;;;;;;4957997;28;19930;-77
2022/10/04 09:50:16;;;;;;;12.40;6.78;;;17.30;99.90;;;;;;4967688;28;20034;-77
2022/10/04 09:53:09;;;;;;;11.43;6.80;;;17.40;99.90;;;;;;4971024;28;20074;-76
2022/10/04 09:55:51;;;;;;;13.10;6.78;;;17.50;99.90;;;;;;4975429;28;20047;-77
2022/10/04 09:58:29;;;;;;;13.13;7.03;;;17.50;99.90;;;;;;4968235;28;20486;-77
2022/10/04 10:01:19;;;;;;;11.38;6.32;;;17.60;99.90;;;;;;4974289;28;20050;-77
2022/10/04 10:03:52;;;;;;;10.95;6.40;;;17.60;99.90;;;;;;4978537;28;20073;-77
2022/10/04 10:06:39;;;;;;;11.45;6.80;;;17.60;99.90;;;;;;4973157;28;20113;-77
2022/10/04 10:15:26;;;;;;;14.15;6.68;;;17.70;99.90;;;;;;4955065;28;20059;-77
2022/10/04 10:18:01;;;;;;;12.93;6.05;;;17.70;99.90;;;;;;4987845;28;20038;-77
2022/10/04 10:20:43;;;;;;;13.73;6.70;;;17.70;99.90;;;;;;4982880;28;20046;-77
2022/10/04 10:23:44;;;;;;;11.80;6.20;;;17.80;99.90;;;;;;4981743;28;20089;-77
2022/10/04 10:26:16;;;;;;;12.38;6.35;;;17.80;99.90;;;;;;4966702;28;20512;-77
2022/10/04 10:29:10;;;;;;;12.68;5.90;;;18.00;99.90;;;;;;4987683;28;20085;-77
2022/10/04 10:31:55;;;;;;;11.35;6.38;;;18.10;99.90;;;;;;4976454;28;20513;-77
2022/10/04 10:34:41;;;;;;;11.50;5.88;;;18.10;99.90;;;;;;4978445;28;20057;-77
2022/10/04 10:37:21;;;;;;;11.93;6.07;;;18.10;99.90;;;;;;4995012;28;20042;-77
2022/10/04 10:40:05;;;;;;;13.25;6.50;;;18.10;99.90;;;;;;4962087;28;20479;-76
2022/10/04 10:42:34;;;;;;;11.43;5.60;;;18.10;99.90;;;;;;4970751;28;20105;-77
2022/10/04 10:45:20;;;;;;;11.60;5.85;;;18.10;99.90;;;;;;4981953;28;20042;-77
2022/10/04 10:47:54;;;;;;;11.65;5.80;;;18.20;99.90;;;;;;4973432;28;20077;-77
2022/10/04 10:50:57;;;;;;;11.25;5.75;;;18.20;99.90;;;;;;4959636;28;20405;-77
2022/10/04 10:53:54;;;;;;;13.05;5.90;;;18.30;99.90;;;;;;4976044;28;20050;-77
2022/10/04 10:56:33;;;;;;;11.85;5.15;;;18.30;99.90;;;;;;4970816;28;20073;-77
2022/10/04 10:59:27;;;;;;;11.75;5.90;;;18.30;99.90;;;;;;4976892;28;20499;-77
2022/10/04 11:02:05;;;;;;;10.98;4.95;;;18.30;99.90;;;;;;4970893;28;20498;-77
2022/10/04 11:05:08;;;;;;;11.73;5.75;;;18.40;99.90;;;;;;4981986;28;20096;-77
2022/10/04 11:08:10;;;;;;;11.07;5.50;;;18.50;99.90;;;;;;4963268;28;20050;-77
2022/10/04 11:10:58;;;;;;;9.73;5.18;;;18.50;99.90;;;;;;4969377;28;20066;-77
2022/10/04 11:13:54;;;;;;;12.55;5.20;;;18.60;99.90;;;;;;4977293;28;20046;-77
2022/10/04 11:16:35;;;;;;;11.45;5.00;;;18.60;99.90;;;;;;4980623;28;20635;-77
2022/10/04 11:19:34;;;;;;;9.07;4.90;;;18.50;99.90;;;;;;4994695;28;20133;-77
2022/10/04 11:22:43;;;;;;;10.82;5.30;;;18.60;99.90;;;;;;4936127;28;20042;-77
2022/10/04 11:25:41;;;;;;;11.93;5.53;;;18.50;99.90;;;;;;4979327;28;20053;-77
2022/10/04 11:28:20;;;;;;;10.85;5.88;;;18.50;99.90;;;;;;4982631;28;20054;-76
2022/10/04 11:31:07;;;;;;;9.70;5.15;;;18.50;99.90;;;;;;4982431;28;20632;-77
2022/10/04 11:34:17;;;;;;;11.43;5.80;;;18.50;99.90;;;;;;4977468;28;20098;-77
2022/10/04 11:37:02;;;;;;;10.07;4.97;;;18.50;99.90;;;;;;4977639;28;20113;-77
2022/10/04 11:39:52;;;;;;;11.18;5.00;;;18.50;99.90;;;;;;4961026;28;20046;-78
2022/10/04 11:42:43;;;;;;;10.30;4.90;;;18.50;99.90;;;;;;4975302;28;20042;-77
2022/10/04 11:45:32;;;;;;;10.75;4.97;;;18.50;99.90;;;;;;4979889;28;20049;-77
2022/10/04 11:48:30;;;;;;;11.32;5.05;;;18.60;99.90;;;;;;4977595;28;20145;-77
2022/10/04 11:51:17;;;;;;;10.35;4.85;;;18.60;99.90;;;;;;4977808;28;20085;-77
2022/10/04 11:54:02;;;;;;;9.70;4.65;;;18.50;99.90;;;;;;4983470;28;20049;-77
2022/10/04 11:56:44;;;;;;;8.73;4.18;;;18.60;99.90;;;;;;4978968;28;20516;-77
2022/10/04 11:59:53;;;;;;;10.95;5.18;;;18.60;99.90;;;;;;4979683;28;20049;-77
2022/10/04 12:02:22;;;;;;;10.93;3.92;;;18.60;99.90;;;;;;4983752;28;20042;-77
2022/10/04 12:05:04;;;;;;;9.75;4.00;;;18.50;99.90;;;;;;4987590;28;20105;-77
2022/10/04 12:07:57;;;;;;;9.85;4.10;;;18.50;99.90;;;;;;4986795;28;20053;-77
2022/10/04 12:10:36;;;;;;;9.73;4.32;;;18.50;99.90;;;;;;4966738;28;20042;-77
2022/10/04 12:13:23;;;;;;;9.18;4.30;;;18.50;99.90;;;;;;4974701;28;20047;-77
2022/10/04 12:16:28;;;;;;;10.63;4.00;;;18.40;99.90;;;;;;4990480;28;20086;-77
2022/10/04 12:18:59;;;;;;;9.75;3.35;;;18.20;99.90;;;;;;4970018;28;20502;-77
2022/10/04 12:21:40;;;;;;;9.45;3.80;;;18.20;99.90;;;;;;4980817;28;20509;-77
2022/10/04 12:24:27;;;;;;;10.30;4.03;;;18.30;99.90;;;;;;4979063;28;20042;-77
2022/10/04 12:27:07;;;;;;;8.43;3.55;;;18.40;99.90;;;;;;4984441;28;20557;-77
2022/10/04 12:29:55;;;;;;;10.55;4.47;;;18.50;99.90;;;;;;4969869;28;20136;-77
2022/10/04 12:32:29;;;;;;;7.53;3.63;;;18.50;99.90;;;;;;4986116;28;20058;-77
2022/10/04 12:35:12;;;;;;;10.07;3.92;;;18.50;99.90;;;;;;4976723;28;20129;-77
2022/10/04 12:38:04;;;;;;;7.90;3.72;;;18.40;99.90;;;;;;4975155;28;20081;-77
2022/10/04 12:40:41;;;;;;;8.85;4.40;;;18.50;99.90;;;;;;4988393;28;20486;-77
2022/10/04 12:43:10;;;;;;;11.63;4.30;;;18.50;99.90;;;;;;4981959;28;20042;-77
2022/10/04 12:46:05;;;;;;;11.27;4.45;;;18.50;99.90;;;;;;4969497;28;20117;-77
2022/10/04 12:49:01;;;;;;;9.63;4.10;;;18.50;99.90;;;;;;4960627;28;20057;-77
2022/10/04 12:51:45;;;;;;;9.75;4.18;;;18.50;99.90;;;;;;4977781;28;20125;-77
2022/10/04 12:54:53;;;;;;;11.88;4.70;;;18.40;99.90;;;;;;4989095;28;20045;-77
2022/10/04 12:57:46;;;;;;;9.70;4.45;;;18.50;99.90;;;;;;4964164;28;20082;-77
2022/10/04 13:00:14;;;;;;;10.35;4.40;;;18.40;99.90;;;;;;4978951;28;20557;-77
2022/10/04 13:02:57;;;;;;;11.40;5.32;;;18.30;99.90;;;;;;4986636;28;20066;-77
2022/10/04 13:05:35;;;;;;;10.13;5.60;;;18.20;99.90;;;;;;4984540;28;20585;-77
2022/10/04 13:08:30;;;;;;;10.88;5.32;;;18.10;99.90;;;;;;4985956;28;20091;-77
2022/10/04 13:11:30;;;;;;;12.98;5.85;;;18.10;99.90;;;;;;4976612;28;20421;-77
2022/10/04 13:14:19;;;;;;;10.15;5.82;;;18.10;99.90;;;;;;4981330;28;20086;-77
2022/10/04 13:16:50;;;;;;;12.00;5.82;;;18.00;99.90;;;;;;4985469;28;20042;-77
2022/10/04 13:19:51;;;;;;;14.07;5.72;;;17.90;99.90;;;;;;4981752;28;20054;-77
2022/10/04 13:22:41;;;;;;;10.90;5.45;;;17.90;99.90;;;;;;4979667;28;20055;-77
2022/10/04 13:25:31;;;;;;;10.07;5.28;;;17.90;99.90;;;;;;4981689;28;20042;-77
2022/10/04 13:28:05;;;;;;;10.13;5.10;;;17.80;99.90;;;;;;4987057;28;20046;-77
2022/10/04 13:30:51;;;;;;;10.75;5.22;;;17.80;99.90;;;;;;4981980;28;20061;-77
2022/10/04 13:33:40;;;;;;;9.85;4.85;;;17.80;99.90;;;;;;4946417;28;20042;-77
2022/10/04 13:36:24;;;;;;;10.18;4.75;;;17.70;99.90;;;;;;4982684;28;20508;-77
2022/10/04 13:39:21;;;;;;;10.40;5.00;;;17.70;99.90;;;;;;4970030;28;20047;-77
2022/10/04 13:42:10;;;;;;;10.27;5.38;;;17.70;99.90;;;;;;4985062;28;20074;-77
2022/10/04 13:45:05;;;;;;;11.20;5.20;;;17.70;99.90;;;;;;4969035;28;20038;-77
2022/10/04 13:47:53;;;;;;;11.40;5.03;;;17.60;99.90;;;;;;4979742;28;20047;-77
2022/10/04 13:50:46;;;;;;;11.68;5.30;;;17.50;99.90;;;;;;4972965;28;20038;-77
2022/10/04 13:56:36;;;;;;;11.20;5.72;;;17.20;99.90;;;;;;4985101;28;20058;-77
2022/10/04 14:00:04;;;;;;;11.00;5.28;;;17.20;99.90;;;;;;4985330;28;20517;-77
2022/10/04 14:02:59;;;;;;;9.40;4.95;;;17.30;99.90;;;;;;4921041;29;20051;-77
2022/10/04 14:05:42;;;;;;;10.25;5.15;;;17.40;99.90;;;;;;4936373;29;20047;-77
2022/10/04 14:08:27;;;;;;;8.63;4.45;;;17.30;99.90;;;;;;4962716;28;20062;-77
2022/10/04 14:11:07;;;;;;;9.85;4.60;;;17.40;99.90;;;;;;4987999;28;20042;-77